Arvada, WY (82831)

10:38 PM MST on February 12, 2016 (GMT -0700)
Gillette-Campbell County | | Change Station
CLOSE
Current Station
Airport
Location: Gillette,
Elevation: 4364 ft
Nearby Weather Stations

Elev 4364 ft 44.34 °N, 105.54 °W | Updated 45 minutes ago

Partly Cloudy
Partly Cloudy
31 °F
Feels Like 17 °F
N
26
Wind Variable Wind from South
Gusts 31 mph

Today
High -- | Low -- °F
--% Chance of Precip.
Yesterday
High -- | Low -- °F
Precip. -- in
Pressure 30.20 in
Visibility 10.0 miles
Clouds Few 12000 ft
Windchill 17 °F
Dew Point 28 °F
Humidity 89%
Rainfall 0.00 in
Snow Depth Not available.
7:09 AM 5:28 PM
Waxing Crescent, 27% visible
METAR KGCC 130453Z AUTO 17023G27KT 10SM FEW120 M01/M02 A3012 RMK AO2 PK WND 18028/0355 SLP226 T10061022
Pressure 30.20 in
Visibility 10.0 miles
Clouds Few 12000 ft
Windchill 17 °F
Dew Point 28 °F
Humidity 89%
Rainfall 0.00 in
Snow Depth Not available.
7:09 AM 5:28 PM
Waxing Crescent, 27% visible
METAR KGCC 130453Z AUTO 17023G27KT 10SM FEW120 M01/M02 A3012 RMK AO2 PK WND 18028/0355 SLP226 T10061022

10-Day Weather Forecast

Almanac

Astronomy

Feb. 12, 2016 Rise Set
Actual Time
Civil Twilight
Nautical Twilight
Astronomical Twilight
Moon
Length of Visible Light
Length of Day
Tomorrow will be .
, % of the Moon is Illuminated

Today's Extremes

State Highs State Lows

Community

WunderPhotos

Upload Photos

1,892,508 photos uploaded!

WunderBlog® & News

Nearby

Air Quality

  Air Quality AQ Index Pollutant
Not available.

Snow Depth

Station Depth Elevation

Earthquake Activity

City Distance Mag. Time & Date
Minimum magnitude displayed is 2.5.

Coastal Water Temperatures

Place Temperature

Stations

Nearby Weather Stations

Station Location Temp. Windchill Dew Point Humidity Wind Precip. Elev Updated Type
                   

Watches & Warnings

There are currently no watches in effect.